ADDS TAF Data INFO
IDs: Format: Raw Decoded Include METARs

Data at: 1250 UTC 20 Jan 2018

KISO 201121Z 2012/2112 23005KT P6SM SKC AMD LTD TO CLD VIS AND WIND